Terminal Aerodrome Forecast
Issued by NWS

Home | Current Version | Previous Version | Text Only | Print | Product List | Glossary On
Versions: 1 2 3 4 5 6 7 8 9 10 11 12 13 14 15 16 17 18 19 20 21 22 23 24 25 26 27 28 29 30 31 32
000
FTUS45 KRIW 232339
TAFPNA
TAF
KPNA 232339Z 2400/2424 30012KT P6SM VCSH SCT025 BKN040
      TEMPO 2400/2402 4SM -RASN BKN025
     FM240200 30011KT P6SM SCT030 BKN050
     FM241000 30006KT P6SM VCFG SCT080
     FM241600 30007KT P6SM FEW050 BKN200
      AMD LTD TO CLD VIS AND WIND=

USA.gov is the U.S. government's official web portal to all federal, state and local government web resources and services.